Mount Carmel, Louisiana
Current Conditions -  °F | °C
As of 9:56 AM on Saturday 22 Nov 2014 (Local Time) from KAQV Reporting Station
Clear Clear  
Wind Chill: 64°   Ceiling: Unl
Heat Index: 64°   Visibility: 10mi
Dew Point: 54°   Wind: 9mph
Humidity: 70%   Direction: 140°SE
Pressure: 30.14"   Gusts: NA
Location:  31.4159°N, 93.4621°W
Report Text: KAQV 221556Z AUTO 14008KT 10SM CLR 18/12 A3014 RMK AO2 SLP205 T01780122
Loading
Personal Weather Stations






























Interactive Weather Map New forecast layout! Learn more

10-Day Weather Forecast

Advertisements
Track Severe Weather on mobile